createdAt,value
2022-11-14T00:00:07.856Z,8.03
2022-11-14T00:01:07.801Z,7.96
2022-11-14T00:02:07.817Z,8.02
2022-11-14T00:03:07.671Z,8.14
2022-11-14T00:04:07.559Z,8.02
2022-11-14T00:05:07.500Z,7.96
2022-11-14T00:06:07.443Z,8.09
2022-11-14T00:07:07.413Z,7.99
2022-11-14T00:08:07.293Z,8.02
2022-11-14T00:09:07.234Z,8.07
2022-11-14T00:10:07.170Z,8.00
2022-11-14T00:11:07.111Z,8.04
2022-11-14T00:12:07.023Z,7.94
2022-11-14T00:13:06.967Z,8.02
2022-11-14T00:14:06.886Z,8.06
2022-11-14T00:15:06.841Z,7.96
2022-11-14T00:16:06.772Z,7.99
2022-11-14T00:17:06.696Z,8.02
2022-11-14T00:18:06.714Z,7.99
2022-11-14T00:19:06.553Z,7.99
2022-11-14T00:20:06.484Z,8.02
2022-11-14T00:21:06.440Z,8.03
2022-11-14T00:22:06.360Z,8.04
2022-11-14T00:23:06.302Z,8.02
2022-11-14T00:24:06.227Z,7.96
2022-11-14T00:25:06.147Z,8.03
2022-11-14T00:26:06.079Z,7.99
2022-11-14T00:27:06.022Z,8.03
2022-11-14T00:28:06.010Z,7.95
2022-11-14T00:29:05.897Z,7.99
2022-11-14T00:30:05.806Z,8.02
2022-11-14T00:31:05.750Z,7.96
2022-11-14T00:32:05.691Z,8.00
2022-11-14T00:33:05.681Z,8.04
2022-11-14T00:34:05.654Z,8.02
2022-11-14T00:35:05.484Z,7.95
2022-11-14T00:36:05.408Z,8.00
2022-11-14T00:37:05.353Z,8.00
2022-11-14T00:38:05.287Z,7.99
2022-11-14T00:39:05.210Z,7.96
2022-11-14T00:40:05.140Z,8.02
2022-11-14T00:41:05.067Z,7.96
2022-11-14T00:42:05.007Z,7.94
2022-11-14T00:43:04.937Z,7.99
2022-11-14T00:44:04.864Z,7.94
2022-11-14T00:45:04.800Z,7.95
2022-11-14T00:46:04.731Z,7.88
2022-11-14T00:47:04.673Z,7.95
2022-11-14T00:48:04.612Z,7.91
2022-11-14T00:49:04.536Z,7.96
2022-11-14T00:50:04.557Z,7.94
2022-11-14T00:51:04.393Z,7.92
2022-11-14T00:52:04.335Z,7.95
2022-11-14T00:53:04.265Z,7.95
2022-11-14T00:54:04.194Z,7.86
2022-11-14T00:55:04.135Z,7.95
2022-11-14T00:56:04.072Z,7.86
2022-11-14T00:57:03.988Z,7.89
2022-11-14T00:58:03.929Z,7.95
2022-11-14T00:59:03.864Z,7.96
2022-11-14T01:00:03.799Z,7.85
2022-11-14T01:01:03.762Z,7.88
2022-11-14T01:02:03.691Z,7.82
2022-11-14T01:03:03.587Z,7.77
2022-11-14T01:04:03.531Z,7.81
2022-11-14T01:05:03.461Z,7.85
2022-11-14T01:06:03.510Z,7.74
2022-11-14T01:07:03.337Z,7.84
2022-11-14T01:08:03.283Z,7.82
2022-11-14T01:09:03.222Z,7.82
2022-11-14T01:10:03.125Z,7.81
2022-11-14T01:11:03.066Z,7.79
2022-11-14T01:12:03.004Z,7.82
2022-11-14T01:13:02.911Z,7.79
2022-11-14T01:14:02.896Z,7.74
2022-11-14T01:15:02.775Z,7.76
2022-11-14T01:16:02.708Z,7.76
2022-11-14T01:17:02.652Z,7.67
2022-11-14T01:18:02.575Z,7.70
2022-11-14T01:19:02.511Z,7.69
2022-11-14T01:20:02.434Z,7.69
2022-11-14T01:21:02.376Z,7.69
2022-11-14T01:22:06.241Z,7.73
2022-11-14T01:23:02.235Z,7.62
2022-11-14T01:24:02.166Z,7.58
2022-11-14T01:25:02.112Z,7.62
2022-11-14T01:26:02.036Z,7.62
2022-11-14T01:27:01.966Z,7.69
2022-11-14T01:28:01.908Z,7.67
2022-11-14T01:29:01.834Z,7.62
2022-11-14T01:30:01.765Z,7.70
2022-11-14T01:31:01.695Z,7.60
2022-11-14T01:32:01.626Z,7.57
2022-11-14T01:33:01.555Z,7.55
2022-11-14T01:34:01.497Z,7.63
2022-11-14T01:35:01.430Z,7.51
2022-11-14T01:36:01.353Z,7.57
2022-11-14T01:37:01.291Z,7.57
2022-11-14T01:38:01.229Z,7.48
2022-11-14T01:39:01.307Z,7.51
2022-11-14T01:40:01.109Z,7.57
2022-11-14T01:41:01.034Z,7.58
2022-11-14T01:42:00.949Z,7.57
2022-11-14T01:43:00.881Z,7.60
2022-11-14T01:44:00.813Z,7.47
2022-11-14T01:45:00.757Z,7.47
2022-11-14T01:46:00.687Z,7.48
2022-11-14T01:47:00.628Z,7.41
2022-11-14T01:48:00.547Z,7.44
2022-11-14T01:49:00.499Z,7.45
2022-11-14T01:50:00.405Z,7.47
2022-11-14T01:51:00.349Z,7.47
2022-11-14T01:52:00.275Z,7.39
2022-11-14T01:53:00.206Z,7.47
2022-11-14T01:54:00.245Z,7.34
2022-11-14T01:55:00.085Z,7.39
2022-11-14T01:56:00.014Z,7.30
2022-11-14T01:57:00.064Z,7.30
2022-11-14T01:57:59.869Z,7.34
2022-11-14T01:58:59.808Z,7.34
2022-11-14T01:59:59.740Z,7.33
2022-11-14T02:00:59.713Z,7.33
2022-11-14T02:01:59.639Z,7.32
2022-11-14T02:02:59.545Z,7.29
2022-11-14T02:03:59.472Z,7.23
2022-11-14T02:04:59.408Z,7.21
2022-11-14T02:05:59.372Z,7.21
2022-11-14T02:06:59.339Z,7.24
2022-11-14T02:07:59.189Z,7.14
2022-11-14T02:08:59.131Z,7.24
2022-11-14T02:09:59.168Z,7.15
2022-11-14T02:10:58.993Z,7.16
2022-11-14T02:11:58.949Z,7.12
2022-11-14T02:12:58.851Z,7.16
2022-11-14T02:13:58.800Z,7.23
2022-11-14T02:14:58.733Z,7.27
2022-11-14T02:15:58.654Z,7.15
2022-11-14T02:17:27.431Z,7.19
2022-11-14T02:17:58.553Z,7.29
2022-11-14T02:18:58.445Z,7.27
2022-11-14T02:20:03.631Z,7.29
2022-11-14T02:20:58.313Z,7.27
2022-11-14T02:21:58.242Z,7.27
2022-11-14T02:22:58.180Z,7.30
2022-11-14T02:23:58.105Z,7.18
2022-11-14T02:24:58.062Z,7.37
2022-11-14T02:25:58.087Z,7.36
2022-11-14T02:26:57.901Z,7.21
2022-11-14T02:27:57.922Z,7.21
2022-11-14T02:28:57.767Z,7.33
2022-11-14T02:29:57.706Z,7.33
2022-11-14T02:30:57.643Z,7.29
2022-11-14T02:31:57.561Z,7.29
2022-11-14T02:33:10.532Z,7.29
2022-11-14T02:33:57.433Z,7.34
2022-11-14T02:34:57.384Z,7.41
2022-11-14T02:35:57.316Z,7.47
2022-11-14T02:36:57.236Z,7.48
2022-11-14T02:37:57.157Z,7.44
2022-11-14T02:38:57.086Z,7.39
2022-11-14T02:39:57.027Z,7.44
2022-11-14T02:40:56.960Z,7.42
2022-11-14T02:41:56.993Z,7.45
2022-11-14T02:42:56.816Z,7.39
2022-11-14T02:43:56.764Z,7.45
2022-11-14T02:44:56.703Z,7.41
2022-11-14T02:45:59.209Z,7.51
2022-11-14T02:46:56.550Z,7.45
2022-11-14T02:47:56.484Z,7.47
2022-11-14T02:48:56.411Z,7.52
2022-11-14T02:49:56.344Z,7.55
2022-11-14T02:50:56.299Z,7.52
2022-11-14T02:51:56.211Z,7.51
2022-11-14T02:52:56.146Z,7.51
2022-11-14T02:53:56.083Z,7.58
2022-11-14T02:54:56.019Z,7.47
2022-11-14T02:55:55.947Z,7.47
2022-11-14T02:56:55.917Z,7.45
2022-11-14T02:57:55.898Z,7.50
2022-11-14T02:58:55.740Z,7.57
2022-11-14T02:59:55.672Z,7.55
2022-11-14T03:01:19.044Z,7.51
2022-11-14T03:01:55.624Z,7.62
2022-11-14T03:02:55.475Z,7.55
2022-11-14T03:03:55.433Z,7.51
2022-11-14T03:04:55.349Z,7.62
2022-11-14T03:05:55.341Z,7.57
2022-11-14T03:06:55.285Z,7.51
2022-11-14T03:07:55.144Z,7.42
2022-11-14T03:08:55.078Z,7.50
2022-11-14T03:09:55.000Z,7.51
2022-11-14T03:10:54.933Z,7.47
2022-11-14T03:11:54.879Z,7.45
2022-11-14T03:12:54.804Z,7.45
2022-11-14T03:13:54.840Z,7.45
2022-11-14T03:14:54.662Z,7.47
2022-11-14T03:15:54.601Z,7.33
2022-11-14T03:16:54.534Z,7.41
2022-11-14T03:17:54.466Z,7.39
2022-11-14T03:18:54.397Z,7.34
2022-11-14T03:19:54.322Z,7.30
2022-11-14T03:20:54.261Z,7.32
2022-11-14T03:21:54.185Z,7.36
2022-11-14T03:22:54.118Z,7.39
2022-11-14T03:23:54.061Z,7.41
2022-11-14T03:24:53.994Z,7.41
2022-11-14T03:25:53.917Z,7.45
2022-11-14T03:26:53.852Z,7.47
2022-11-14T03:27:53.826Z,7.47
2022-11-14T03:28:53.720Z,7.39
2022-11-14T03:29:57.624Z,7.47
2022-11-14T03:30:53.577Z,7.44
2022-11-14T03:31:53.512Z,7.54
2022-11-14T03:32:53.442Z,7.45
2022-11-14T03:33:53.378Z,7.42
2022-11-14T03:34:53.320Z,7.47
2022-11-14T03:35:53.245Z,7.48
2022-11-14T03:36:53.204Z,7.41
2022-11-14T03:37:56.405Z,7.47
2022-11-14T03:38:53.176Z,7.47
2022-11-14T03:39:52.986Z,7.45
2022-11-14T03:40:52.905Z,7.44
2022-11-14T03:41:52.860Z,7.34
2022-11-14T03:42:52.803Z,7.33
2022-11-14T03:43:52.701Z,7.34
2022-11-14T03:44:52.645Z,7.29
2022-11-14T03:45:52.682Z,7.41
2022-11-14T03:46:52.523Z,7.37
2022-11-14T03:47:52.442Z,7.48
2022-11-14T03:48:52.364Z,7.44
2022-11-14T03:49:52.301Z,7.48
2022-11-14T03:50:52.225Z,7.48
2022-11-14T03:51:52.226Z,7.45
2022-11-14T03:52:52.094Z,7.30
2022-11-14T03:53:52.029Z,7.34
2022-11-14T03:54:51.986Z,7.39
2022-11-14T03:55:51.889Z,7.34
2022-11-14T03:56:51.838Z,7.37
2022-11-14T03:57:51.769Z,7.33
2022-11-14T03:58:51.687Z,7.33
2022-11-14T03:59:51.619Z,7.29
2022-11-14T04:00:51.645Z,7.30
2022-11-14T04:01:51.620Z,7.33
2022-11-14T04:02:51.417Z,7.32
2022-11-14T04:03:51.351Z,7.44
2022-11-14T04:04:51.290Z,7.44
2022-11-14T04:05:51.215Z,7.41
2022-11-14T04:06:51.240Z,7.42
2022-11-14T04:07:51.077Z,7.50
2022-11-14T04:08:51.029Z,7.47
2022-11-14T04:09:50.956Z,7.44
2022-11-14T04:10:50.885Z,7.45
2022-11-14T04:11:50.815Z,7.41
2022-11-14T04:12:50.737Z,7.44
2022-11-14T04:13:50.689Z,7.30
2022-11-14T04:14:50.631Z,7.47
2022-11-14T04:15:50.547Z,7.48
2022-11-14T04:16:50.492Z,7.47
2022-11-14T04:17:50.514Z,7.41
2022-11-14T04:18:50.332Z,7.41
2022-11-14T04:19:50.282Z,7.48
2022-11-14T04:20:50.197Z,7.44
2022-11-14T04:21:50.153Z,7.45
2022-11-14T04:22:50.090Z,7.44
2022-11-14T04:23:50.012Z,7.41
2022-11-14T04:24:49.950Z,7.47
2022-11-14T04:25:49.864Z,7.45
2022-11-14T04:26:49.817Z,7.47
2022-11-14T04:27:49.738Z,7.45
2022-11-14T04:28:49.680Z,7.44
2022-11-14T04:29:49.593Z,7.42
2022-11-14T04:30:49.537Z,7.33
2022-11-14T04:31:49.462Z,7.44
2022-11-14T04:32:49.389Z,7.44
2022-11-14T04:33:49.415Z,7.33
2022-11-14T04:34:49.258Z,7.30
2022-11-14T04:35:49.194Z,7.45
2022-11-14T04:36:49.125Z,7.34
2022-11-14T04:37:49.075Z,7.45
2022-11-14T04:38:48.993Z,7.39
2022-11-14T04:39:48.926Z,7.27
2022-11-14T04:40:48.852Z,7.30
2022-11-14T04:41:48.792Z,7.26
2022-11-14T04:42:48.715Z,7.24
2022-11-14T04:43:51.005Z,7.37
2022-11-14T04:44:48.608Z,7.33
2022-11-14T04:45:48.528Z,7.34
2022-11-14T04:46:48.444Z,7.33
2022-11-14T04:47:48.434Z,7.29
2022-11-14T04:48:48.328Z,7.21
2022-11-14T04:49:48.350Z,7.24
2022-11-14T04:50:48.194Z,7.19
2022-11-14T04:51:48.112Z,7.19
2022-11-14T04:52:48.040Z,7.16
2022-11-14T04:53:47.975Z,7.19
2022-11-14T04:54:47.920Z,7.08
2022-11-14T04:55:47.838Z,7.08
2022-11-14T04:56:47.779Z,7.14
2022-11-14T04:57:47.702Z,7.11
2022-11-14T04:58:47.630Z,7.14
2022-11-14T04:59:47.620Z,7.12
2022-11-14T05:00:47.498Z,7.14
2022-11-14T05:01:47.524Z,7.14
2022-11-14T05:02:47.359Z,7.08
2022-11-14T05:03:47.300Z,7.19
2022-11-14T05:04:47.255Z,7.11
2022-11-14T05:05:47.173Z,7.19
2022-11-14T05:06:47.169Z,7.14
2022-11-14T05:07:47.039Z,7.09
2022-11-14T05:08:46.953Z,7.14
2022-11-14T05:09:46.889Z,7.14
2022-11-14T05:10:46.816Z,7.15
2022-11-14T05:11:46.760Z,7.11
2022-11-14T05:12:46.683Z,7.08
2022-11-14T05:13:46.623Z,7.18
2022-11-14T05:14:46.551Z,7.21
2022-11-14T05:15:46.489Z,7.16
2022-11-14T05:16:46.412Z,7.11
2022-11-14T05:17:46.346Z,7.16
2022-11-14T05:18:47.196Z,7.05
2022-11-14T05:19:46.212Z,7.09
2022-11-14T05:20:46.145Z,7.08
2022-11-14T05:21:46.083Z,7.11
2022-11-14T05:22:46.013Z,7.15
2022-11-14T05:23:45.950Z,7.00
2022-11-14T05:24:45.872Z,7.08
2022-11-14T05:25:45.826Z,7.07
2022-11-14T05:26:45.735Z,7.00
2022-11-14T05:27:45.669Z,7.12
2022-11-14T05:28:45.688Z,7.05
2022-11-14T05:29:45.530Z,7.16
2022-11-14T05:30:45.468Z,7.11
2022-11-14T05:31:45.406Z,7.14
2022-11-14T05:32:45.348Z,7.15
2022-11-14T05:33:45.280Z,7.12
2022-11-14T05:34:45.197Z,7.11
2022-11-14T05:35:45.126Z,7.11
2022-11-14T05:36:45.069Z,7.11
2022-11-14T05:37:45.018Z,7.04
2022-11-14T05:38:44.934Z,7.08
2022-11-14T05:39:44.871Z,6.99
2022-11-14T05:40:44.805Z,7.04
2022-11-14T05:41:44.717Z,7.00
2022-11-14T05:42:44.653Z,7.01
2022-11-14T05:43:44.592Z,7.04
2022-11-14T05:44:44.524Z,7.05
2022-11-14T05:45:44.450Z,6.97
2022-11-14T05:46:44.391Z,7.05
2022-11-14T05:47:44.326Z,7.00
2022-11-14T05:48:44.252Z,7.11
2022-11-14T05:49:44.176Z,7.05
2022-11-14T05:50:44.118Z,7.12
2022-11-14T05:51:44.085Z,7.05
2022-11-14T05:52:43.970Z,7.01
2022-11-14T05:53:43.925Z,7.07
2022-11-14T05:54:43.838Z,7.11
2022-11-14T05:55:43.776Z,7.11
2022-11-14T05:56:43.707Z,7.14
2022-11-14T05:57:43.652Z,7.19
2022-11-14T05:58:43.582Z,7.11
2022-11-14T05:59:43.513Z,7.08
2022-11-14T06:00:49.820Z,7.16
2022-11-14T06:01:43.421Z,7.09
2022-11-14T06:02:43.312Z,7.18
2022-11-14T06:03:43.236Z,7.11
2022-11-14T06:04:43.169Z,7.15
2022-11-14T06:05:43.102Z,7.12
2022-11-14T06:06:43.090Z,7.14
2022-11-14T06:07:42.966Z,7.14
2022-11-14T06:08:42.912Z,7.19
2022-11-14T06:09:42.853Z,7.12
2022-11-14T06:10:42.762Z,7.18
2022-11-14T06:11:42.691Z,7.15
2022-11-14T06:12:42.624Z,7.23
2022-11-14T06:13:42.568Z,7.23
2022-11-14T06:14:42.513Z,7.14
2022-11-14T06:15:42.417Z,7.08
2022-11-14T06:16:42.350Z,7.14
2022-11-14T06:17:42.299Z,7.15
2022-11-14T06:18:42.222Z,7.15
2022-11-14T06:19:42.153Z,7.18
2022-11-14T06:20:42.082Z,7.18
2022-11-14T06:21:42.021Z,7.12
2022-11-14T06:22:41.965Z,7.21
2022-11-14T06:23:41.899Z,7.16
2022-11-14T06:24:41.803Z,7.16
2022-11-14T06:25:41.752Z,7.26
2022-11-14T06:26:41.678Z,7.21
2022-11-14T06:27:41.612Z,7.11
2022-11-14T06:28:41.546Z,7.24
2022-11-14T06:29:41.467Z,7.21
2022-11-14T06:30:41.424Z,7.15
2022-11-14T06:31:41.337Z,7.16
2022-11-14T06:32:41.277Z,7.19
2022-11-14T06:33:41.216Z,7.19
2022-11-14T06:34:41.130Z,7.12
2022-11-14T06:35:41.061Z,7.14
2022-11-14T06:36:41.001Z,7.15
2022-11-14T06:37:40.927Z,7.19
2022-11-14T06:38:40.875Z,7.23
2022-11-14T06:39:40.787Z,7.19
2022-11-14T06:40:40.721Z,7.23
2022-11-14T06:41:40.661Z,7.24
2022-11-14T06:42:40.588Z,7.14
2022-11-14T06:43:40.524Z,7.11
2022-11-14T06:44:40.471Z,7.05
2022-11-14T06:45:40.388Z,7.07
2022-11-14T06:46:40.318Z,7.11
2022-11-14T06:47:40.270Z,7.08
2022-11-14T06:48:40.185Z,7.07
2022-11-14T06:49:40.793Z,7.07
2022-11-14T06:50:40.045Z,7.09
2022-11-14T06:51:39.978Z,7.14
2022-11-14T06:52:39.907Z,7.12
2022-11-14T06:53:39.839Z,7.08
2022-11-14T06:54:39.788Z,7.15
2022-11-14T06:55:39.712Z,7.14
2022-11-14T06:56:39.644Z,7.24
2022-11-14T06:57:39.603Z,7.23
2022-11-14T06:58:39.565Z,7.15
2022-11-14T06:59:39.456Z,7.19
2022-11-14T07:00:39.368Z,7.16
2022-11-14T07:01:39.294Z,7.24
2022-11-14T07:02:39.253Z,7.19
2022-11-14T07:03:39.174Z,7.23
2022-11-14T07:04:39.119Z,7.27
2022-11-14T07:05:39.056Z,7.27
2022-11-14T07:06:38.963Z,7.23
2022-11-14T07:07:38.892Z,7.27
2022-11-14T07:08:38.824Z,7.26
2022-11-14T07:09:38.775Z,7.24
2022-11-14T07:10:38.688Z,7.24
2022-11-14T07:11:38.657Z,7.29
2022-11-14T07:12:38.560Z,7.24
2022-11-14T07:13:38.501Z,7.23
2022-11-14T07:14:38.430Z,7.19
2022-11-14T07:15:38.376Z,7.18
2022-11-14T07:16:38.302Z,7.23
2022-11-14T07:17:38.226Z,7.18
2022-11-14T07:18:38.214Z,7.23
2022-11-14T07:19:38.080Z,7.24
2022-11-14T07:20:38.049Z,7.24
2022-11-14T07:21:37.970Z,7.33
2022-11-14T07:22:37.881Z,7.26
2022-11-14T07:23:37.812Z,7.34
2022-11-14T07:24:37.766Z,7.21
2022-11-14T07:25:37.697Z,7.37
2022-11-14T07:26:37.634Z,7.37
2022-11-14T07:27:37.597Z,7.30
2022-11-14T07:28:37.490Z,7.45
2022-11-14T07:29:37.420Z,7.37
2022-11-14T07:30:37.344Z,7.39
2022-11-14T07:31:37.453Z,7.36
2022-11-14T07:32:37.206Z,7.32
2022-11-14T07:33:37.132Z,7.41
2022-11-14T07:34:37.167Z,7.30
2022-11-14T07:35:37.006Z,7.48
2022-11-14T07:36:36.946Z,7.42
2022-11-14T07:37:36.877Z,7.48
2022-11-14T07:38:36.803Z,7.48
2022-11-14T07:39:36.734Z,7.55
2022-11-14T07:40:36.669Z,7.62
2022-11-14T07:41:36.603Z,7.76
2022-11-14T07:42:36.530Z,7.73
2022-11-14T07:43:36.467Z,7.71
2022-11-14T07:44:36.398Z,7.66
2022-11-14T07:45:36.341Z,7.66
2022-11-14T07:46:36.313Z,7.74
2022-11-14T07:47:36.205Z,7.79
2022-11-14T07:48:36.141Z,7.94
2022-11-14T07:49:36.056Z,7.92
2022-11-14T07:50:35.991Z,7.89
2022-11-14T07:51:35.930Z,8.03
2022-11-14T07:52:35.864Z,8.12
2022-11-14T07:53:36.192Z,8.10
2022-11-14T07:54:35.730Z,8.10
2022-11-14T07:55:35.672Z,8.07
2022-11-14T07:56:35.599Z,8.13
2022-11-14T07:57:40.370Z,8.17
2022-11-14T07:58:35.664Z,8.17
2022-11-14T07:59:35.636Z,8.39
2022-11-14T08:00:35.398Z,8.43
2022-11-14T08:01:35.376Z,8.36
2022-11-14T08:02:35.191Z,8.27
2022-11-14T08:03:35.136Z,8.21
2022-11-14T08:04:35.068Z,8.25
2022-11-14T08:05:35.013Z,8.07
2022-11-14T08:06:34.935Z,8.02
2022-11-14T08:07:34.997Z,8.02
2022-11-14T08:08:34.797Z,8.03
2022-11-14T08:09:34.763Z,7.99
2022-11-14T08:10:34.760Z,8.03
2022-11-14T08:11:35.436Z,8.00
2022-11-14T08:12:34.548Z,7.96
2022-11-14T08:13:34.477Z,8.12
2022-11-14T08:14:34.418Z,8.12
2022-11-14T08:15:34.333Z,7.95
2022-11-14T08:16:34.315Z,8.03
2022-11-14T08:17:34.204Z,7.99
2022-11-14T08:18:34.194Z,7.99
2022-11-14T08:19:34.115Z,7.89
2022-11-14T08:20:34.006Z,7.92
2022-11-14T08:21:33.954Z,7.94
2022-11-14T08:22:33.868Z,8.03
2022-11-14T08:23:33.802Z,8.09
2022-11-14T08:24:33.745Z,8.17
2022-11-14T08:25:33.681Z,8.10
2022-11-14T08:26:34.512Z,8.17
2022-11-14T08:27:33.551Z,8.07
2022-11-14T08:28:33.980Z,8.13
2022-11-14T08:29:33.441Z,8.02
2022-11-14T08:30:33.341Z,8.09
2022-11-14T08:31:33.271Z,8.00
2022-11-14T08:32:33.240Z,7.99
2022-11-14T08:33:33.161Z,8.09
2022-11-14T08:34:33.077Z,8.18
2022-11-14T08:35:33.031Z,8.20
2022-11-14T08:36:32.960Z,8.28
2022-11-14T08:37:32.876Z,8.57
2022-11-14T08:38:33.504Z,8.65
2022-11-14T08:39:32.776Z,8.85
2022-11-14T08:40:32.685Z,9.01
2022-11-14T08:41:32.617Z,8.93
2022-11-14T08:42:32.575Z,9.15
2022-11-14T08:43:32.485Z,9.24
2022-11-14T08:44:32.416Z,9.26
2022-11-14T08:45:32.348Z,9.35
2022-11-14T08:46:32.284Z,9.40
2022-11-14T08:47:32.219Z,9.48
2022-11-14T08:48:32.785Z,9.63
2022-11-14T08:49:32.117Z,9.65
2022-11-14T08:50:32.024Z,9.91
2022-11-14T08:51:32.036Z,9.86
2022-11-14T08:52:31.896Z,9.99
2022-11-14T08:53:31.840Z,9.95
2022-11-14T08:54:31.793Z,9.95
2022-11-14T08:55:31.704Z,10.04
2022-11-14T08:56:31.645Z,9.83
2022-11-14T08:57:31.962Z,9.67
2022-11-14T08:58:32.129Z,9.63
2022-11-14T08:59:31.486Z,9.35
2022-11-14T09:00:31.387Z,9.27
2022-11-14T09:01:31.383Z,9.20
2022-11-14T09:02:31.254Z,9.20
2022-11-14T09:03:31.272Z,9.01
2022-11-14T09:04:31.197Z,9.10
2022-11-14T09:05:31.081Z,9.08
2022-11-14T09:06:31.031Z,9.23
2022-11-14T09:07:30.987Z,8.97
2022-11-14T09:08:31.203Z,8.86
2022-11-14T09:09:30.811Z,8.98
2022-11-14T09:10:30.752Z,8.98
2022-11-14T09:11:30.693Z,9.17
2022-11-14T09:12:30.625Z,9.62
2022-11-14T09:13:30.717Z,9.63
2022-11-14T09:14:30.501Z,9.93
2022-11-14T09:15:30.455Z,10.04
2022-11-14T09:16:30.400Z,10.42
2022-11-14T09:17:30.299Z,10.20
2022-11-14T09:18:30.525Z,10.46
2022-11-14T09:19:30.207Z,10.72
2022-11-14T09:20:33.233Z,10.60
2022-11-14T09:21:30.045Z,10.68
2022-11-14T09:22:30.021Z,10.47
2022-11-14T09:23:30.223Z,10.55
2022-11-14T09:24:29.864Z,10.88
2022-11-14T09:25:29.796Z,11.03
2022-11-14T09:26:29.732Z,10.63
2022-11-14T09:27:29.669Z,10.54
2022-11-14T09:28:29.615Z,10.60
2022-11-14T09:29:29.573Z,10.80
2022-11-14T09:30:29.491Z,11.05
2022-11-14T09:31:29.429Z,11.06
2022-11-14T09:32:29.380Z,11.28
2022-11-14T09:33:29.736Z,11.42
2022-11-14T09:34:29.272Z,11.42
2022-11-14T09:35:29.202Z,11.63
2022-11-14T09:36:29.118Z,11.59
2022-11-14T09:37:29.059Z,11.49
2022-11-14T09:38:30.864Z,11.44
2022-11-14T09:39:28.940Z,11.45
2022-11-14T09:40:28.872Z,11.36
2022-11-14T09:41:28.824Z,11.39
2022-11-14T09:42:28.753Z,11.51
2022-11-14T09:43:29.031Z,11.41
2022-11-14T09:44:28.632Z,11.42
2022-11-14T09:45:28.568Z,11.70
2022-11-14T09:46:28.505Z,11.79
2022-11-14T09:47:28.449Z,11.56
2022-11-14T09:48:28.601Z,11.44
2022-11-14T09:49:28.326Z,11.62
2022-11-14T09:50:28.270Z,12.03
2022-11-14T09:51:28.206Z,11.98
2022-11-14T09:52:28.146Z,11.56
2022-11-14T09:53:28.085Z,11.62
2022-11-14T09:54:28.029Z,11.94
2022-11-14T09:55:32.207Z,12.12
2022-11-14T09:56:27.905Z,12.19
2022-11-14T09:57:27.876Z,12.34
2022-11-14T09:58:28.084Z,12.44
2022-11-14T09:59:27.725Z,12.76
2022-11-14T10:00:27.667Z,12.76
2022-11-14T10:01:27.724Z,12.63
2022-11-14T10:02:27.540Z,12.40
2022-11-14T10:03:27.812Z,12.41
2022-11-14T10:04:27.428Z,11.96
2022-11-14T10:05:27.360Z,12.30
2022-11-14T10:06:27.300Z,12.33
2022-11-14T10:07:27.306Z,12.26
2022-11-14T10:08:27.181Z,12.11
2022-11-14T10:09:30.451Z,11.78
2022-11-14T10:10:27.074Z,12.18
2022-11-14T10:11:27.018Z,12.43
2022-11-14T10:12:26.953Z,12.36
2022-11-14T10:13:27.091Z,12.43
2022-11-14T10:14:26.823Z,12.55
2022-11-14T10:15:31.211Z,12.61
2022-11-14T10:16:26.703Z,12.85
2022-11-14T10:17:26.648Z,12.85
2022-11-14T10:18:26.599Z,12.88
2022-11-14T10:19:26.528Z,13.36
2022-11-14T10:20:26.465Z,13.43
2022-11-14T10:21:26.413Z,13.72
2022-11-14T10:22:26.356Z,13.80
2022-11-14T10:23:26.287Z,13.83
2022-11-14T10:24:26.227Z,13.38
2022-11-14T10:25:26.171Z,13.04
2022-11-14T10:26:26.116Z,12.49
2022-11-14T10:27:26.054Z,12.55
2022-11-14T10:28:25.989Z,12.52
2022-11-14T10:29:25.968Z,12.12
2022-11-14T10:30:25.886Z,12.12
2022-11-14T10:31:25.829Z,12.22
2022-11-14T10:32:25.767Z,12.62
2022-11-14T10:33:25.701Z,12.40
2022-11-14T10:34:25.641Z,12.26
2022-11-14T10:35:25.593Z,12.18
2022-11-14T10:36:25.514Z,12.26
2022-11-14T10:37:25.455Z,12.33
2022-11-14T10:38:25.396Z,12.81
2022-11-14T10:39:25.338Z,12.88
2022-11-14T10:40:25.347Z,13.10
2022-11-14T10:41:50.011Z,13.31
2022-11-14T10:42:25.164Z,13.57
2022-11-14T10:43:25.098Z,13.69
2022-11-14T10:44:25.039Z,13.79
2022-11-14T10:45:24.980Z,13.98
2022-11-14T10:46:24.940Z,14.06
2022-11-14T10:47:24.864Z,14.05
2022-11-14T10:48:24.798Z,13.79
2022-11-14T10:49:24.741Z,13.54
2022-11-14T10:50:24.690Z,13.62
2022-11-14T10:51:24.624Z,13.43
2022-11-14T10:52:24.567Z,13.50
2022-11-14T10:53:24.515Z,13.41
2022-11-14T10:54:24.458Z,13.50
2022-11-14T10:55:49.814Z,13.39
2022-11-14T10:56:24.338Z,13.57
2022-11-14T10:57:24.279Z,13.53
2022-11-14T10:58:24.217Z,13.53
2022-11-14T10:59:24.176Z,13.36
2022-11-14T11:00:24.119Z,13.25
2022-11-14T11:01:24.101Z,13.03
2022-11-14T11:02:23.972Z,13.24
2022-11-14T11:03:23.920Z,13.10
2022-11-14T11:04:23.922Z,13.31
2022-11-14T11:05:23.806Z,12.96
2022-11-14T11:06:23.758Z,12.71
2022-11-14T11:07:23.760Z,12.18
2022-11-14T11:08:44.597Z,11.93
2022-11-14T11:09:23.598Z,11.38
2022-11-14T11:10:23.506Z,11.26
2022-11-14T11:11:23.442Z,11.19
2022-11-14T11:12:23.406Z,11.01
2022-11-14T11:13:23.338Z,11.08
2022-11-14T11:14:23.270Z,11.01
2022-11-14T11:15:23.215Z,11.01
2022-11-14T11:16:23.144Z,10.95
2022-11-14T11:17:23.125Z,10.95
2022-11-14T11:18:23.048Z,10.93
2022-11-14T11:19:22.956Z,11.02
2022-11-14T11:20:22.889Z,11.09
2022-11-14T11:21:22.947Z,11.11
2022-11-14T11:22:22.770Z,11.17
2022-11-14T11:23:22.709Z,11.21
2022-11-14T11:24:22.694Z,11.24
2022-11-14T11:25:22.590Z,11.24
2022-11-14T11:26:23.197Z,11.24
2022-11-14T11:27:22.483Z,11.17
2022-11-14T11:28:22.412Z,11.17
2022-11-14T11:29:22.507Z,11.20
2022-11-14T11:30:22.309Z,11.12
2022-11-14T11:31:22.219Z,11.19
2022-11-14T11:32:22.202Z,11.20
2022-11-14T11:33:22.105Z,11.20
2022-11-14T11:34:22.058Z,11.30
2022-11-14T11:35:21.980Z,11.38
2022-11-14T11:36:21.934Z,11.36
2022-11-14T11:37:21.959Z,11.30
2022-11-14T11:38:21.765Z,11.36
2022-11-14T11:39:21.703Z,11.26
2022-11-14T11:40:21.639Z,11.20
2022-11-14T11:42:00.891Z,11.19
2022-11-14T11:42:21.545Z,11.19
2022-11-14T11:43:38.268Z,11.20
2022-11-14T11:44:21.515Z,11.16
2022-11-14T11:45:21.346Z,11.19
2022-11-14T11:46:21.251Z,11.21
2022-11-14T11:47:21.231Z,11.13
2022-11-14T11:48:21.135Z,11.20
2022-11-14T11:49:21.083Z,11.06
2022-11-14T11:50:21.034Z,11.03
2022-11-14T11:51:20.973Z,11.05
2022-11-14T11:52:20.904Z,10.98
2022-11-14T11:53:20.843Z,11.08
2022-11-14T11:54:20.775Z,11.06
2022-11-14T11:55:20.719Z,11.20
2022-11-14T11:56:20.622Z,11.21
2022-11-14T11:57:22.099Z,11.20
2022-11-14T11:58:21.197Z,11.17
2022-11-14T11:59:20.457Z,11.20
2022-11-14T12:00:20.355Z,11.27
2022-11-14T12:01:20.338Z,11.20
2022-11-14T12:02:20.442Z,11.27
2022-11-14T12:03:20.755Z,11.36
2022-11-14T12:04:20.245Z,11.36
2022-11-14T12:05:20.037Z,11.28
2022-11-14T12:06:20.079Z,11.35
2022-11-14T12:07:20.021Z,11.38
2022-11-14T12:08:21.507Z,11.42
2022-11-14T12:09:19.855Z,11.35
2022-11-14T12:10:19.740Z,11.39
2022-11-14T12:11:19.654Z,11.36
2022-11-14T12:12:19.617Z,11.38
2022-11-14T12:13:19.525Z,11.39
2022-11-14T12:14:19.454Z,11.42
2022-11-14T12:15:19.447Z,11.39
2022-11-14T12:16:19.342Z,11.42
2022-11-14T12:17:19.292Z,11.41
2022-11-14T12:18:19.215Z,11.42
2022-11-14T12:19:19.277Z,11.45
2022-11-14T12:20:19.077Z,11.49
2022-11-14T12:21:19.024Z,11.56
2022-11-14T12:22:18.937Z,11.41
2022-11-14T12:23:18.878Z,11.44
2022-11-14T12:24:18.835Z,11.56
2022-11-14T12:25:18.772Z,11.57
2022-11-14T12:26:18.808Z,11.54
2022-11-14T12:27:18.787Z,11.60
2022-11-14T12:28:18.604Z,11.63
2022-11-14T12:29:22.652Z,11.78
2022-11-14T12:30:18.449Z,11.77
2022-11-14T12:31:18.365Z,11.84
2022-11-14T12:32:18.299Z,11.74
2022-11-14T12:33:18.249Z,11.79
2022-11-14T12:34:18.257Z,11.75
2022-11-14T12:35:18.266Z,11.81
2022-11-14T12:36:18.037Z,11.79
2022-11-14T12:37:18.116Z,11.78
2022-11-14T12:38:17.962Z,11.70
2022-11-14T12:39:17.915Z,11.72
2022-11-14T12:40:17.800Z,11.79
2022-11-14T12:41:17.715Z,11.79
2022-11-14T12:42:17.649Z,11.79
2022-11-14T12:43:17.608Z,11.81
2022-11-14T12:44:17.559Z,11.84
2022-11-14T12:45:17.456Z,11.72
2022-11-14T12:46:17.475Z,11.79
2022-11-14T12:47:17.337Z,11.82
2022-11-14T12:48:17.303Z,11.81
2022-11-14T12:49:17.206Z,11.88
2022-11-14T12:50:17.147Z,11.82
2022-11-14T12:51:17.156Z,11.79
2022-11-14T12:52:17.008Z,11.90
2022-11-14T12:53:16.942Z,11.96
2022-11-14T12:54:16.876Z,11.94
2022-11-14T12:55:16.839Z,11.93
2022-11-14T12:56:16.810Z,11.93
2022-11-14T12:57:16.717Z,11.94
2022-11-14T12:58:16.650Z,11.97
2022-11-14T12:59:16.582Z,11.98
2022-11-14T13:00:16.519Z,12.01
2022-11-14T13:01:16.531Z,12.05
2022-11-14T13:02:22.035Z,12.00
2022-11-14T13:03:16.384Z,12.04
2022-11-14T13:04:16.236Z,12.00
2022-11-14T13:05:16.165Z,12.11
2022-11-14T13:06:16.187Z,12.15
2022-11-14T13:07:16.124Z,12.16
2022-11-14T13:08:16.021Z,12.12
2022-11-14T13:09:15.950Z,12.15